Hampstead, North Carolina
Current Conditions -  °F | °C
As of 9:53 PM on Tuesday 21 Oct 2014 (Local Time) from KILM Reporting Station
Clear Clear  
Wind Chill: 63°   Ceiling: Unl
Heat Index: 63°   Visibility: 10mi
Dew Point: 58°   Wind: 3mph
Humidity: 84%   Direction: 210°SSW
Pressure: 29.88"   Gusts: NA
Location:  34.37°N, 77.71°W
Report Text: KILM 220153Z 21003KT 10SM CLR 17/14 A2988 RMK AO2 SLP118 T01720144
Loading
Personal Weather Stations






























Interactive Weather Map
Tropical Storm Tracking
New forecast layout! Learn more

10-Day Weather Forecast

Advertisements
Track Severe Weather on mobile